Time;durP1;ratioP1;P1;durP2;ratioP2;P2;SDS_P1;SDS_P2;PMS_P1;PMS_P2;Temp;Humidity;BMP_temperature;BMP_pressure;BME280_temperature;BME280_humidity;BME280_pressure;Samples;Min_cycle;Max_cycle;Signal;HPM_P1;HPM_P2
2023/01/23 00:01:18;;;;;;;4.75;1.98;;;1.50;99.90;;;;;;4943150;29;20114;-88
2023/01/23 00:03:44;;;;;;;6.80;3.15;;;1.40;99.90;;;;;;4939686;29;20110;-88
2023/01/23 00:06:13;;;;;;;5.97;2.97;;;1.40;99.90;;;;;;4955675;28;20019;-89
2023/01/23 00:08:41;;;;;;;6.93;2.65;;;1.40;99.90;;;;;;4954411;28;20032;-89
2023/01/23 00:11:10;;;;;;;6.65;3.35;;;1.40;99.90;;;;;;4955672;28;20030;-89
2023/01/23 00:13:37;;;;;;;4.28;2.10;;;1.40;99.90;;;;;;4955282;28;20499;-89
2023/01/23 00:16:16;;;;;;;5.53;3.08;;;1.40;99.90;;;;;;4970487;28;20035;-89
2023/01/23 00:18:42;;;;;;;3.80;2.85;;;1.50;99.90;;;;;;4943487;29;20051;-89
2023/01/23 00:21:13;;;;;;;5.95;3.45;;;1.50;99.90;;;;;;4926303;29;20039;-89
2023/01/23 00:23:47;;;;;;;12.32;4.43;;;1.50;99.90;;;;;;4956187;29;20046;-89
2023/01/23 00:26:22;;;;;;;6.20;3.30;;;1.50;99.90;;;;;;4938603;29;20035;-88
2023/01/23 00:28:49;;;;;;;4.70;2.67;;;1.50;99.90;;;;;;4955894;28;20058;-90
2023/01/23 00:31:24;;;;;;;6.47;3.60;;;1.40;99.90;;;;;;4926387;29;20570;-89
2023/01/23 00:33:58;;;;;;;7.32;2.60;;;1.40;99.90;;;;;;4920488;29;20511;-89
2023/01/23 00:36:29;;;;;;;8.48;3.88;;;1.40;99.90;;;;;;4936695;29;20033;-89
2023/01/23 00:38:55;;;;;;;6.97;3.08;;;1.40;99.90;;;;;;4956042;29;20562;-90
2023/01/23 00:41:21;;;;;;;10.43;4.03;;;1.40;99.90;;;;;;4950104;29;20132;-89
2023/01/23 00:43:47;;;;;;;5.65;3.25;;;1.40;99.90;;;;;;4956089;29;20038;-89
2023/01/23 00:46:13;;;;;;;9.35;4.50;;;1.50;99.90;;;;;;4939671;28;20396;-89
2023/01/23 00:48:39;;;;;;;6.82;3.55;;;1.50;99.90;;;;;;4936326;29;20062;-89
2023/01/23 00:51:05;;;;;;;4.13;2.42;;;1.60;99.90;;;;;;4936147;29;20036;-89
2023/01/23 00:53:30;;;;;;;8.57;3.72;;;1.70;99.90;;;;;;4936925;29;20031;-89
2023/01/23 00:55:56;;;;;;;10.45;3.00;;;1.70;99.90;;;;;;4949762;28;20078;-89
2023/01/23 00:58:22;;;;;;;6.45;3.67;;;1.60;99.90;;;;;;4955165;29;20387;-89
2023/01/23 01:00:47;;;;;;;3.22;2.47;;;1.60;99.90;;;;;;4945091;28;20024;-90
2023/01/23 01:03:13;;;;;;;9.55;3.53;;;1.60;99.90;;;;;;4939499;28;20041;-90
2023/01/23 01:05:39;;;;;;;6.28;3.67;;;1.50;99.90;;;;;;4946321;28;20059;-89
2023/01/23 01:08:05;;;;;;;5.30;2.90;;;1.40;99.90;;;;;;4947202;28;20031;-89
2023/01/23 01:10:32;;;;;;;8.65;2.83;;;1.40;99.90;;;;;;4952915;28;20045;-89
2023/01/23 01:13:01;;;;;;;7.90;4.95;;;1.30;99.90;;;;;;4955958;29;20038;-89
2023/01/23 01:15:27;;;;;;;2.65;1.77;;;1.20;99.90;;;;;;4941207;28;20226;-90
2023/01/23 01:17:53;;;;;;;7.35;3.00;;;1.20;99.90;;;;;;4935997;29;20036;-90
2023/01/23 01:20:22;;;;;;;5.57;3.50;;;1.10;99.90;;;;;;4941033;28;20031;-89
2023/01/23 01:22:49;;;;;;;7.97;4.40;;;1.00;99.90;;;;;;4944081;29;20023;-89
2023/01/23 01:25:14;;;;;;;7.70;3.72;;;1.00;99.90;;;;;;4961424;28;20030;-89
2023/01/23 01:27:40;;;;;;;6.47;4.03;;;0.90;99.90;;;;;;4959708;29;20027;-89
2023/01/23 01:30:07;;;;;;;8.90;4.82;;;0.90;99.90;;;;;;4960717;28;20503;-89
2023/01/23 01:32:37;;;;;;;3.70;2.80;;;0.80;99.90;;;;;;4951761;28;20073;-88
2023/01/23 01:35:05;;;;;;;4.78;2.90;;;0.90;99.90;;;;;;4949799;28;20043;-89
2023/01/23 01:37:37;;;;;;;3.70;2.40;;;0.90;99.90;;;;;;4954275;28;20028;-87
2023/01/23 01:40:06;;;;;;;6.28;2.55;;;0.80;99.90;;;;;;4968652;29;20027;-88
2023/01/23 01:42:44;;;;;;;7.13;2.25;;;0.90;99.90;;;;;;4971862;28;20039;-89
2023/01/23 01:46:06;;;;;;;5.93;3.78;;;0.80;99.90;;;;;;4956942;28;20082;-89
2023/01/23 01:48:49;;;;;;;2.97;1.90;;;0.90;99.90;;;;;;4965594;28;20038;-89
2023/01/23 01:51:39;;;;;;;8.98;3.63;;;0.90;99.90;;;;;;4963661;29;20031;-89
2023/01/23 01:54:13;;;;;;;2.92;2.60;;;0.80;99.90;;;;;;4961008;29;20039;-89
2023/01/23 01:57:01;;;;;;;4.45;3.00;;;0.70;99.90;;;;;;4954514;28;20039;-89
2023/01/23 01:59:35;;;;;;;6.70;2.85;;;0.70;99.90;;;;;;4939583;29;20395;-89
2023/01/23 02:02:13;;;;;;;4.47;2.60;;;0.70;99.90;;;;;;4928476;29;20118;-88
2023/01/23 02:04:45;;;;;;;8.55;3.45;;;0.70;99.90;;;;;;4952857;29;20395;-88
2023/01/23 02:07:21;;;;;;;5.35;3.10;;;0.70;99.90;;;;;;4934718;29;20110;-88
2023/01/23 02:09:48;;;;;;;6.80;3.88;;;0.70;99.90;;;;;;4957942;28;20357;-88
2023/01/23 02:12:13;;;;;;;8.77;3.85;;;0.70;99.90;;;;;;4942737;28;20039;-89
2023/01/23 02:14:40;;;;;;;6.38;3.40;;;0.70;99.90;;;;;;4939133;29;20028;-89
2023/01/23 02:17:06;;;;;;;8.65;3.47;;;0.80;99.90;;;;;;4927025;29;20082;-89
2023/01/23 02:20:14;;;;;;;7.65;3.30;;;0.80;99.90;;;;;;4957738;28;20031;-89
2023/01/23 02:22:52;;;;;;;6.13;2.92;;;0.90;99.90;;;;;;4942837;29;20038;-89
2023/01/23 02:25:43;;;;;;;5.63;3.53;;;1.00;99.90;;;;;;4961952;23;20453;-89
2023/01/23 02:28:15;;;;;;;5.63;2.95;;;1.10;99.90;;;;;;4938209;29;20051;-89
2023/01/23 02:30:45;;;;;;;5.75;3.08;;;1.10;99.90;;;;;;4921596;29;20035;-89
2023/01/23 02:33:31;;;;;;;6.47;4.83;;;1.00;99.90;;;;;;4921994;29;20118;-88
2023/01/23 02:36:02;;;;;;;6.38;3.35;;;1.20;99.90;;;;;;4937916;29;20324;-88
2023/01/23 02:39:02;;;;;;;6.10;3.28;;;1.30;99.90;;;;;;4944738;29;20031;-90
2023/01/23 02:41:33;;;;;;;4.65;2.40;;;1.30;99.90;;;;;;4930809;29;20039;-88
2023/01/23 02:44:25;;;;;;;5.97;3.50;;;1.40;99.90;;;;;;4938630;29;20036;-88
2023/01/23 02:46:56;;;;;;;2.65;2.08;;;1.40;99.90;;;;;;4937209;29;20040;-89
2023/01/23 02:49:22;;;;;;;4.13;1.85;;;1.50;99.90;;;;;;4937466;29;20044;-89
2023/01/23 02:51:50;;;;;;;4.47;2.60;;;1.50;99.90;;;;;;4934200;29;20050;-89
2023/01/23 02:54:17;;;;;;;7.18;3.65;;;1.50;99.90;;;;;;4938308;29;20039;-89
2023/01/23 02:56:43;;;;;;;7.40;3.40;;;1.50;99.90;;;;;;4936235;29;20074;-89
2023/01/23 03:01:54;;;;;;;6.70;3.17;;;1.60;99.90;;;;;;4923563;29;20043;-89
2023/01/23 03:04:20;;;;;;;6.07;3.28;;;1.60;99.90;;;;;;4930704;29;20091;-89
2023/01/23 03:06:46;;;;;;;4.15;2.40;;;1.50;99.90;;;;;;4920458;29;20039;-89
2023/01/23 03:09:16;;;;;;;6.20;3.38;;;1.40;99.90;;;;;;4937607;29;20468;-89
2023/01/23 03:11:44;;;;;;;5.13;2.72;;;1.50;99.90;;;;;;4927000;29;20032;-90
2023/01/23 03:14:18;;;;;;;6.05;3.65;;;1.60;99.90;;;;;;4937934;29;20024;-90
2023/01/23 03:16:49;;;;;;;8.88;3.67;;;1.60;99.90;;;;;;4925735;29;20032;-90
2023/01/23 03:19:16;;;;;;;6.32;3.45;;;1.60;99.90;;;;;;4938225;29;20031;-90
2023/01/23 03:21:42;;;;;;;4.60;2.50;;;1.60;99.90;;;;;;4937666;29;20047;-89
2023/01/23 03:24:11;;;;;;;4.07;2.85;;;1.50;99.90;;;;;;4937423;29;20040;-90
2023/01/23 03:26:42;;;;;;;6.25;3.70;;;1.50;99.90;;;;;;4926811;29;20038;-89
2023/01/23 03:32:02;;;;;;;3.65;2.60;;;1.60;99.90;;;;;;4936796;29;20039;-90
2023/01/23 03:34:29;;;;;;;6.13;3.17;;;1.40;99.90;;;;;;4937841;29;20036;-90
2023/01/23 03:36:55;;;;;;;6.55;3.15;;;1.40;99.90;;;;;;4935621;29;20117;-90
2023/01/23 03:42:05;;;;;;;5.75;2.72;;;1.50;99.90;;;;;;4937691;29;20102;-89
2023/01/23 03:44:31;;;;;;;7.03;3.03;;;1.40;99.90;;;;;;4937093;29;20044;-90
2023/01/23 03:46:56;;;;;;;5.43;3.38;;;1.40;99.90;;;;;;4924282;29;20034;-88
2023/01/23 03:49:22;;;;;;;8.18;2.45;;;1.40;99.90;;;;;;4946599;29;20039;-88
2023/01/23 03:51:48;;;;;;;7.88;3.17;;;1.50;99.90;;;;;;4944479;29;20032;-89
2023/01/23 03:54:13;;;;;;;7.20;3.22;;;1.60;99.90;;;;;;4937286;29;20039;-89
2023/01/23 03:56:41;;;;;;;4.35;2.67;;;1.60;99.90;;;;;;4937844;29;20038;-90
2023/01/23 03:59:07;;;;;;;6.38;3.63;;;1.60;99.90;;;;;;4937127;29;20070;-88
2023/01/23 04:01:33;;;;;;;3.95;2.25;;;1.60;99.90;;;;;;4937286;29;20058;-88
2023/01/23 04:03:59;;;;;;;12.20;4.10;;;1.60;99.90;;;;;;4920573;29;20032;-88
2023/01/23 04:06:25;;;;;;;7.63;3.75;;;1.60;99.90;;;;;;4936428;29;20115;-88
2023/01/23 04:08:51;;;;;;;10.00;4.22;;;1.60;99.90;;;;;;4937045;29;20070;-89
2023/01/23 04:11:18;;;;;;;4.90;2.63;;;1.60;99.90;;;;;;4936613;29;20024;-89
2023/01/23 04:13:45;;;;;;;5.03;3.05;;;1.50;99.90;;;;;;4936852;29;20039;-89
2023/01/23 04:16:12;;;;;;;6.93;2.55;;;1.50;99.90;;;;;;4929324;29;20059;-89
2023/01/23 04:18:38;;;;;;;8.10;3.00;;;1.40;99.90;;;;;;4932383;29;20090;-88
2023/01/23 04:21:04;;;;;;;4.68;2.70;;;1.50;99.90;;;;;;4936885;29;20030;-90
2023/01/23 04:23:30;;;;;;;6.05;3.35;;;1.50;99.90;;;;;;4936928;29;20036;-90
2023/01/23 04:25:56;;;;;;;5.32;2.50;;;1.60;99.90;;;;;;4935799;29;20032;-90
2023/01/23 04:28:22;;;;;;;6.55;3.05;;;1.60;99.90;;;;;;4936355;29;20027;-89
2023/01/23 04:30:52;;;;;;;5.35;3.05;;;1.60;99.90;;;;;;4936375;29;20083;-90
2023/01/23 04:33:19;;;;;;;6.05;2.35;;;1.60;99.90;;;;;;4917795;29;20044;-90
2023/01/23 04:35:59;;;;;;;4.13;2.58;;;1.50;99.90;;;;;;4908553;29;20039;-88
2023/01/23 04:38:27;;;;;;;12.23;3.13;;;1.60;99.90;;;;;;4919565;29;20044;-89
2023/01/23 04:40:54;;;;;;;7.97;3.90;;;1.50;99.90;;;;;;4917139;29;20508;-89
2023/01/23 04:43:20;;;;;;;5.68;3.35;;;1.60;99.90;;;;;;4937062;29;20068;-89
2023/01/23 04:45:50;;;;;;;4.75;2.95;;;1.60;99.90;;;;;;4929202;29;20044;-90
2023/01/23 04:48:15;;;;;;;10.35;3.63;;;1.50;99.90;;;;;;4900372;29;20058;-90
2023/01/23 04:50:41;;;;;;;5.63;3.72;;;1.60;99.90;;;;;;4922564;29;20563;-90
2023/01/23 04:53:07;;;;;;;7.78;3.97;;;1.50;99.90;;;;;;4935095;29;20067;-90
2023/01/23 04:55:33;;;;;;;7.65;2.92;;;1.50;99.90;;;;;;4931152;29;20028;-89
2023/01/23 04:58:00;;;;;;;5.13;2.45;;;1.50;99.90;;;;;;4934174;29;20032;-90
2023/01/23 05:00:27;;;;;;;7.28;3.22;;;1.50;99.90;;;;;;4936793;29;20031;-89
2023/01/23 05:02:54;;;;;;;6.63;3.60;;;1.50;99.90;;;;;;4937529;29;20042;-89
2023/01/23 05:05:20;;;;;;;9.85;4.57;;;1.50;99.90;;;;;;4921780;29;20028;-89
2023/01/23 05:07:47;;;;;;;5.53;2.90;;;1.60;99.90;;;;;;4899600;29;20062;-88
2023/01/23 05:10:14;;;;;;;4.82;3.55;;;1.50;99.90;;;;;;4896841;29;20123;-89
2023/01/23 05:12:40;;;;;;;6.78;4.38;;;1.50;99.90;;;;;;4938271;29;20036;-88
2023/01/23 05:15:07;;;;;;;7.22;4.20;;;1.50;99.90;;;;;;4937416;29;20042;-87
2023/01/23 05:17:33;;;;;;;6.90;3.97;;;1.50;99.90;;;;;;4942284;29;20028;-87
2023/01/23 05:19:59;;;;;;;7.25;3.92;;;1.40;99.90;;;;;;4919555;29;20061;-83
2023/01/23 05:22:25;;;;;;;8.48;3.85;;;1.40;99.90;;;;;;4933785;29;20036;-81
2023/01/23 05:24:51;;;;;;;8.73;4.07;;;1.30;99.90;;;;;;4933533;29;20035;-81
2023/01/23 05:27:17;;;;;;;15.77;3.80;;;1.40;99.90;;;;;;4932438;29;20039;-80
2023/01/23 05:29:43;;;;;;;7.38;3.33;;;1.40;99.90;;;;;;4933228;29;20138;-79
2023/01/23 05:32:08;;;;;;;7.63;2.70;;;1.40;99.90;;;;;;4932984;29;20119;-79
2023/01/23 05:34:34;;;;;;;5.32;2.92;;;1.50;99.90;;;;;;4933015;29;20038;-79
2023/01/23 05:37:00;;;;;;;4.97;3.00;;;1.70;99.90;;;;;;4932205;29;20047;-81
2023/01/23 05:39:25;;;;;;;8.77;3.20;;;1.60;99.90;;;;;;4916344;29;20032;-79
2023/01/23 05:41:51;;;;;;;6.18;2.78;;;1.60;99.90;;;;;;4932948;29;20565;-79
2023/01/23 05:44:17;;;;;;;9.60;4.25;;;1.70;99.90;;;;;;4900579;29;20115;-79
2023/01/23 05:46:42;;;;;;;6.68;4.32;;;1.80;99.90;;;;;;4924846;29;20119;-79
2023/01/23 05:49:08;;;;;;;5.30;2.95;;;1.80;99.90;;;;;;4933528;29;20032;-77
2023/01/23 05:51:34;;;;;;;3.97;3.00;;;1.70;99.90;;;;;;4918335;29;20558;-81
2023/01/23 05:54:02;;;;;;;15.77;6.32;;;1.70;99.90;;;;;;4934656;29;20035;-78
2023/01/23 05:56:28;;;;;;;6.22;3.67;;;1.70;99.90;;;;;;4912124;29;20032;-79
2023/01/23 05:58:54;;;;;;;4.22;2.65;;;1.60;99.90;;;;;;4908396;29;20507;-86
2023/01/23 06:01:20;;;;;;;6.93;3.90;;;1.50;99.90;;;;;;4905948;29;20112;-86
2023/01/23 06:03:46;;;;;;;6.65;3.58;;;1.60;99.90;;;;;;4934841;29;20472;-84
2023/01/23 06:06:13;;;;;;;3.45;2.47;;;1.60;99.90;;;;;;4926871;29;20027;-85
2023/01/23 06:08:39;;;;;;;7.65;4.22;;;1.60;99.90;;;;;;4928833;29;20027;-82
2023/01/23 06:11:05;;;;;;;6.53;3.38;;;1.50;99.90;;;;;;4936336;29;20473;-81
2023/01/23 06:13:30;;;;;;;6.78;4.18;;;1.60;99.90;;;;;;4938087;29;20118;-85
2023/01/23 06:15:57;;;;;;;8.00;2.95;;;1.60;99.90;;;;;;4938006;29;20115;-85
2023/01/23 06:18:22;;;;;;;6.25;3.95;;;1.60;99.90;;;;;;4929433;29;20036;-86
2023/01/23 06:20:48;;;;;;;5.95;2.30;;;1.60;99.90;;;;;;4936543;29;20562;-80
2023/01/23 06:23:14;;;;;;;5.60;3.35;;;1.70;99.90;;;;;;4928376;29;20032;-83
2023/01/23 06:25:40;;;;;;;8.07;4.97;;;1.70;99.90;;;;;;4935968;29;20032;-82
2023/01/23 06:28:06;;;;;;;10.43;3.55;;;1.80;99.90;;;;;;4935676;29;20036;-81
2023/01/23 06:30:33;;;;;;;7.25;4.00;;;1.70;99.90;;;;;;4931611;29;20079;-82
2023/01/23 06:32:58;;;;;;;7.72;3.72;;;1.80;99.90;;;;;;4934248;29;20042;-82
2023/01/23 06:35:24;;;;;;;8.10;4.22;;;1.70;99.90;;;;;;4936176;29;20480;-82
2023/01/23 06:37:50;;;;;;;5.05;3.40;;;1.70;99.90;;;;;;4918485;29;20043;-76
2023/01/23 06:40:16;;;;;;;10.45;3.67;;;1.70;99.90;;;;;;4936372;29;20548;-86
2023/01/23 06:42:42;;;;;;;6.75;3.15;;;1.70;99.90;;;;;;4935936;29;20677;-82
2023/01/23 06:45:11;;;;;;;9.32;3.30;;;1.60;99.90;;;;;;4928938;29;20063;-86
2023/01/23 06:47:36;;;;;;;5.40;2.55;;;1.60;99.90;;;;;;4935129;29;20223;-76
2023/01/23 06:50:03;;;;;;;8.20;3.83;;;1.50;99.90;;;;;;4933136;29;20024;-79
2023/01/23 06:52:29;;;;;;;8.02;3.10;;;1.40;99.90;;;;;;4910941;29;20127;-83
2023/01/23 06:54:55;;;;;;;6.55;3.13;;;1.40;99.90;;;;;;4918872;29;20524;-76
2023/01/23 06:57:21;;;;;;;10.75;3.47;;;1.30;99.90;;;;;;4916849;29;20500;-76
2023/01/23 06:59:46;;;;;;;8.60;2.47;;;1.30;99.90;;;;;;4933299;29;20035;-77
2023/01/23 07:02:12;;;;;;;4.15;2.83;;;1.30;99.90;;;;;;4930504;29;20049;-74
2023/01/23 07:04:38;;;;;;;5.45;3.38;;;1.30;99.90;;;;;;4917192;29;20027;-75
2023/01/23 07:07:04;;;;;;;8.80;3.38;;;1.30;99.90;;;;;;4925815;29;20043;-80
2023/01/23 07:09:30;;;;;;;5.30;3.25;;;1.30;99.90;;;;;;4917964;29;20046;-79
2023/01/23 07:11:56;;;;;;;3.08;2.13;;;1.40;99.90;;;;;;4934620;29;20107;-81
2023/01/23 07:14:22;;;;;;;12.82;2.85;;;1.30;99.90;;;;;;4935102;29;20035;-81
2023/01/23 07:16:48;;;;;;;6.30;3.58;;;1.20;99.90;;;;;;4933501;29;20506;-81
2023/01/23 07:19:13;;;;;;;5.57;4.00;;;1.20;99.90;;;;;;4917725;29;20055;-81
2023/01/23 07:21:39;;;;;;;3.15;2.75;;;1.20;99.90;;;;;;4933825;29;20046;-81
2023/01/23 07:24:05;;;;;;;5.32;3.13;;;1.20;99.90;;;;;;4934565;29;20039;-82
2023/01/23 07:26:31;;;;;;;7.28;4.13;;;1.20;99.90;;;;;;4933606;29;20074;-82
2023/01/23 07:28:57;;;;;;;5.45;3.30;;;1.20;99.90;;;;;;4927001;29;20024;-81
2023/01/23 07:31:23;;;;;;;5.88;3.60;;;1.20;99.90;;;;;;4934251;29;20091;-82
2023/01/23 07:33:49;;;;;;;9.35;4.07;;;1.20;99.90;;;;;;4927899;28;20061;-81
2023/01/23 07:36:14;;;;;;;6.22;3.83;;;1.30;99.90;;;;;;4933672;29;20093;-77
2023/01/23 07:38:40;;;;;;;4.05;2.92;;;1.30;99.90;;;;;;4925912;29;20039;-77
2023/01/23 07:41:06;;;;;;;7.45;3.45;;;1.40;99.90;;;;;;4934271;29;20046;-77
2023/01/23 07:43:32;;;;;;;4.53;2.95;;;1.40;99.90;;;;;;4933806;29;20036;-74
2023/01/23 07:46:01;;;;;;;6.95;3.08;;;1.40;99.90;;;;;;4934050;29;20058;-77
2023/01/23 07:48:28;;;;;;;4.93;2.72;;;1.40;99.90;;;;;;4925147;29;20036;-77
2023/01/23 07:50:54;;;;;;;6.70;4.00;;;1.40;99.90;;;;;;4917503;29;20046;-77
2023/01/23 07:53:20;;;;;;;10.55;3.65;;;1.40;99.90;;;;;;4916172;29;20043;-79
2023/01/23 07:55:46;;;;;;;12.45;3.05;;;1.40;99.90;;;;;;4934056;29;20031;-79
2023/01/23 07:58:11;;;;;;;6.25;3.33;;;1.40;99.90;;;;;;4933046;29;20507;-78
2023/01/23 08:00:38;;;;;;;7.03;2.72;;;1.50;99.90;;;;;;4933630;29;20412;-78
2023/01/23 08:03:04;;;;;;;7.50;3.90;;;1.50;99.90;;;;;;4933301;29;20035;-77
2023/01/23 08:05:29;;;;;;;14.30;4.75;;;1.50;99.90;;;;;;4933810;29;20460;-77
2023/01/23 08:07:55;;;;;;;7.00;4.50;;;1.50;99.90;;;;;;4932754;29;20027;-78
2023/01/23 08:10:21;;;;;;;8.10;3.67;;;1.50;99.90;;;;;;4934245;29;20039;-78
2023/01/23 08:12:46;;;;;;;3.90;3.05;;;1.50;99.90;;;;;;4933469;29;20485;-78
2023/01/23 08:15:12;;;;;;;6.72;3.22;;;1.60;99.90;;;;;;4933468;29;20341;-78
2023/01/23 08:17:37;;;;;;;6.93;3.40;;;1.60;99.90;;;;;;4926492;29;20035;-78
2023/01/23 08:20:04;;;;;;;10.65;5.03;;;1.50;99.90;;;;;;4932162;29;20444;-79
2023/01/23 08:22:29;;;;;;;7.72;3.80;;;1.60;99.90;;;;;;4930519;29;20036;-77
2023/01/23 08:24:55;;;;;;;8.45;4.07;;;1.60;99.90;;;;;;4932637;29;20686;-79
2023/01/23 08:27:21;;;;;;;5.93;3.40;;;1.70;99.90;;;;;;4948235;23;20051;-70
2023/01/23 08:29:47;;;;;;;8.10;3.05;;;1.80;99.90;;;;;;4929376;29;20641;-71
2023/01/23 08:32:12;;;;;;;5.18;2.92;;;1.90;99.90;;;;;;4926516;29;20073;-72
2023/01/23 08:34:38;;;;;;;3.85;2.13;;;2.00;99.90;;;;;;4928410;28;20118;-71
2023/01/23 08:37:04;;;;;;;4.95;2.72;;;2.00;99.90;;;;;;4932780;29;20095;-70
2023/01/23 08:39:30;;;;;;;6.47;3.35;;;2.00;99.90;;;;;;4915941;29;20175;-71
2023/01/23 08:41:55;;;;;;;6.85;3.28;;;2.10;99.90;;;;;;4934337;29;20083;-71
2023/01/23 08:44:22;;;;;;;10.20;3.92;;;2.20;99.90;;;;;;4930530;29;20040;-70
2023/01/23 08:46:48;;;;;;;7.10;3.17;;;2.20;99.90;;;;;;4932646;28;20046;-71
2023/01/23 08:49:14;;;;;;;6.20;2.72;;;2.30;99.90;;;;;;4928858;28;20027;-72
2023/01/23 08:51:39;;;;;;;7.55;3.30;;;2.30;99.90;;;;;;4923258;29;20084;-73
2023/01/23 08:54:05;;;;;;;5.72;3.15;;;2.40;99.90;;;;;;4926510;29;20466;-73
2023/01/23 08:56:31;;;;;;;6.90;3.15;;;2.50;99.90;;;;;;4925122;29;20114;-72
2023/01/23 08:58:56;;;;;;;5.90;3.63;;;2.50;99.90;;;;;;4926698;29;20044;-72
2023/01/23 09:01:25;;;;;;;11.98;4.40;;;2.60;99.90;;;;;;4905559;29;20039;-72
2023/01/23 09:03:52;;;;;;;8.65;3.72;;;2.70;99.90;;;;;;4928724;29;20031;-71
2023/01/23 09:06:20;;;;;;;4.55;2.92;;;2.70;99.90;;;;;;4913979;29;20050;-71
2023/01/23 09:08:46;;;;;;;8.65;3.45;;;2.70;99.90;;;;;;4932498;29;20115;-71
2023/01/23 09:11:13;;;;;;;4.72;3.20;;;2.60;99.90;;;;;;4899635;29;20051;-71
2023/01/23 09:13:39;;;;;;;7.53;2.85;;;2.60;99.90;;;;;;4915179;29;20039;-72
2023/01/23 09:16:09;;;;;;;10.23;4.95;;;2.70;99.90;;;;;;4931977;29;20381;-71
2023/01/23 09:18:35;;;;;;;5.57;3.45;;;2.70;99.90;;;;;;4913589;29;20036;-72
2023/01/23 09:21:10;;;;;;;9.13;3.35;;;2.70;99.90;;;;;;4904344;29;20171;-72
2023/01/23 09:23:37;;;;;;;6.03;3.08;;;2.70;99.90;;;;;;4922078;29;20028;-72
2023/01/23 09:26:12;;;;;;;7.60;2.90;;;2.60;99.90;;;;;;4919039;29;20040;-72
2023/01/23 09:28:41;;;;;;;7.00;3.45;;;2.40;99.90;;;;;;4893639;29;20532;-74
2023/01/23 09:31:11;;;;;;;4.72;2.60;;;2.50;99.90;;;;;;4910574;29;20054;-73
2023/01/23 09:33:37;;;;;;;9.75;3.97;;;2.40;99.90;;;;;;4924560;29;20046;-72
2023/01/23 09:36:04;;;;;;;7.57;3.67;;;2.60;99.90;;;;;;4936475;29;20046;-73
2023/01/23 09:38:32;;;;;;;9.70;3.47;;;2.60;99.90;;;;;;4937897;28;20036;-72
2023/01/23 09:41:06;;;;;;;6.55;2.72;;;2.40;99.90;;;;;;4933784;29;20472;-72
2023/01/23 09:43:48;;;;;;;5.10;2.83;;;2.60;99.90;;;;;;4920439;29;20043;-73
2023/01/23 09:46:52;;;;;;;8.00;3.65;;;2.60;99.90;;;;;;4920004;29;20039;-69
2023/01/23 09:49:40;;;;;;;5.95;3.30;;;2.70;99.90;;;;;;4902942;29;20043;-76
2023/01/23 09:52:20;;;;;;;6.35;3.30;;;2.80;99.90;;;;;;4923435;29;20035;-75
2023/01/23 09:55:17;;;;;;;5.70;2.67;;;2.90;99.90;;;;;;4913773;29;20567;-74
2023/01/23 09:57:54;;;;;;;6.15;2.80;;;2.90;99.90;;;;;;4931752;28;20039;-76
2023/01/23 10:00:36;;;;;;;8.05;3.03;;;3.00;99.90;;;;;;4937635;29;20036;-74
2023/01/23 10:03:09;;;;;;;;;;;3.30;99.90;;;;;;4918573;29;20043;-74
2023/01/23 10:06:22;;;;;;;6.30;2.67;;;3.20;99.90;;;;;;4917653;29;19926;-74
2023/01/23 10:09:03;;;;;;;8.07;3.25;;;3.30;99.90;;;;;;4920213;29;20031;-75
2023/01/23 10:12:43;;;;;;;7.47;3.90;;;3.40;99.90;;;;;;4908716;29;20047;-74
2023/01/23 10:15:26;;;;;;;9.05;4.18;;;3.20;99.90;;;;;;4858382;29;21453;-74
2023/01/23 10:18:13;;;;;;;4.22;2.35;;;3.30;99.90;;;;;;4857678;29;20119;-74
2023/01/23 10:20:47;;;;;;;6.80;3.97;;;3.00;99.90;;;;;;4860827;29;20123;-73
2023/01/23 10:23:35;;;;;;;7.20;3.95;;;2.90;99.90;;;;;;4876635;29;20411;-74
2023/01/23 10:26:02;;;;;;;6.45;3.22;;;3.10;99.90;;;;;;4875855;29;20048;-74
2023/01/23 10:28:37;;;;;;;6.28;3.10;;;3.30;99.90;;;;;;4858415;29;20096;-75
2023/01/23 10:31:28;;;;;;;8.57;3.88;;;3.30;99.90;;;;;;4856906;29;20087;-75
2023/01/23 10:34:14;;;;;;;6.03;2.97;;;3.50;99.90;;;;;;4859315;29;20533;-75
2023/01/23 10:37:34;;;;;;;7.20;3.67;;;3.60;99.90;;;;;;4862342;29;20036;-76
2023/01/23 10:40:13;;;;;;;6.43;2.30;;;3.60;99.90;;;;;;4803079;29;20465;-75
2023/01/23 10:42:38;;;;;;;11.70;3.20;;;3.60;99.90;;;;;;4874769;29;20088;-75
2023/01/23 10:45:10;;;;;;;5.90;2.65;;;3.40;99.90;;;;;;4898253;29;20610;-75
2023/01/23 10:47:46;;;;;;;7.43;2.85;;;3.50;99.90;;;;;;4917793;29;20465;-75
2023/01/23 10:50:13;;;;;;;6.22;2.88;;;3.50;99.90;;;;;;4934158;29;20028;-75
2023/01/23 10:52:45;;;;;;;3.58;2.53;;;3.30;99.90;;;;;;4900621;29;20032;-75
2023/01/23 10:55:29;;;;;;;5.97;3.03;;;3.40;99.90;;;;;;4918339;29;20032;-75
2023/01/23 10:58:01;;;;;;;5.03;3.53;;;3.50;99.90;;;;;;4939829;29;20408;-75
2023/01/23 11:00:44;;;;;;;6.85;3.30;;;3.60;99.90;;;;;;4934904;29;20024;-73
2023/01/23 11:03:33;;;;;;;7.90;2.88;;;3.70;99.90;;;;;;4923805;29;20091;-75
2023/01/23 11:06:06;;;;;;;8.55;3.75;;;3.90;99.90;;;;;;4917303;29;20219;-73
2023/01/23 11:08:36;;;;;;;6.70;2.83;;;3.90;99.90;;;;;;4928368;29;20107;-73
2023/01/23 11:11:14;;;;;;;7.00;3.45;;;4.00;99.90;;;;;;4934356;29;20150;-73
2023/01/23 11:13:41;;;;;;;6.72;3.42;;;3.90;99.90;;;;;;4930159;29;20102;-73
2023/01/23 11:16:22;;;;;;;5.53;3.25;;;3.80;99.90;;;;;;4933808;29;20035;-72
2023/01/23 11:18:54;;;;;;;5.05;2.25;;;3.70;99.90;;;;;;4906356;29;20098;-72
2023/01/23 11:21:30;;;;;;;5.25;3.10;;;3.60;99.90;;;;;;4918546;29;20578;-73
2023/01/23 11:24:26;;;;;;;8.05;3.60;;;3.80;99.90;;;;;;4925813;29;20461;-71
2023/01/23 11:27:18;;;;;;;7.15;3.90;;;4.00;99.90;;;;;;4930228;29;20098;-70
2023/01/23 11:30:08;;;;;;;5.78;2.97;;;3.90;99.90;;;;;;4930289;29;20495;-70
2023/01/23 11:33:11;;;;;;;6.68;2.58;;;4.00;99.90;;;;;;4936926;29;20034;-71
2023/01/23 11:35:46;;;;;;;6.35;2.72;;;3.90;99.90;;;;;;4932849;29;20041;-71
2023/01/23 11:38:17;;;;;;;5.93;2.47;;;3.90;99.90;;;;;;4933676;29;20050;-70
2023/01/23 11:40:43;;;;;;;8.07;2.92;;;3.80;99.90;;;;;;4916691;29;20110;-71
2023/01/23 11:43:14;;;;;;;6.88;3.08;;;3.50;99.90;;;;;;4894540;29;20571;-73
2023/01/23 11:46:02;;;;;;;6.03;3.65;;;3.40;99.90;;;;;;4941472;28;20104;-71
2023/01/23 11:48:47;;;;;;;7.65;3.35;;;3.30;99.90;;;;;;4923575;29;20504;-74
2023/01/23 11:51:31;;;;;;;6.65;2.38;;;3.50;99.90;;;;;;4933825;29;20047;-73
2023/01/23 11:54:15;;;;;;;2.97;1.83;;;3.50;99.90;;;;;;4933222;29;20035;-72
2023/01/23 11:57:11;;;;;;;4.95;2.22;;;3.60;99.90;;;;;;4928493;29;20042;-70
2023/01/23 11:59:58;;;;;;;7.80;2.75;;;3.50;99.90;;;;;;4921059;29;20040;-72
2023/01/23 12:03:10;;;;;;;7.57;3.40;;;3.60;99.90;;;;;;4939472;28;20039;-68
2023/01/23 12:06:26;;;;;;;4.63;2.50;;;3.80;99.90;;;;;;4914665;29;20039;-76
2023/01/23 12:09:14;;;;;;;5.45;2.78;;;4.00;99.90;;;;;;4910969;29;20036;-78
2023/01/23 12:12:45;;;;;;;11.68;4.78;;;3.70;99.90;;;;;;4934444;29;20036;-78
2023/01/23 12:16:00;;;;;;;5.70;3.13;;;3.60;99.90;;;;;;4933437;29;20114;-75
2023/01/23 12:19:09;;;;;;;7.18;3.40;;;3.80;99.90;;;;;;4925970;29;20032;-73
2023/01/23 12:22:01;;;;;;;6.60;3.00;;;3.80;99.90;;;;;;4923212;28;20680;-73
2023/01/23 12:25:11;;;;;;;8.07;3.72;;;3.70;99.90;;;;;;4927060;29;20062;-74
2023/01/23 12:27:56;;;;;;;5.40;2.78;;;3.70;99.90;;;;;;4938295;29;20039;-74
2023/01/23 12:31:02;;;;;;;4.75;2.08;;;4.00;99.90;;;;;;4899894;29;20515;-75
2023/01/23 12:33:57;;;;;;;7.15;3.28;;;4.10;99.90;;;;;;4939391;29;20127;-75
2023/01/23 12:37:15;;;;;;;8.57;4.93;;;4.10;99.90;;;;;;4932590;29;20043;-75
2023/01/23 12:39:59;;;;;;;5.20;2.05;;;4.20;99.90;;;;;;4887377;29;20452;-75
2023/01/23 12:42:31;;;;;;;7.18;2.78;;;4.40;99.90;;;;;;4915698;29;20035;-75
2023/01/23 12:45:15;;;;;;;7.53;2.85;;;4.00;99.90;;;;;;4933016;29;20147;-74
2023/01/23 12:47:50;;;;;;;5.03;3.28;;;4.00;99.90;;;;;;4938098;29;20040;-75
2023/01/23 12:50:29;;;;;;;5.70;2.88;;;4.00;99.90;;;;;;4914000;29;20032;-75
2023/01/23 12:53:03;;;;;;;6.95;1.95;;;4.20;99.90;;;;;;4916398;29;20038;-75
2023/01/23 12:55:58;;;;;;;7.05;3.35;;;4.20;99.90;;;;;;4916066;29;20071;-74
2023/01/23 12:58:28;;;;;;;7.80;3.42;;;4.20;99.90;;;;;;4915366;29;20044;-79
2023/01/23 13:01:40;;;;;;;5.50;2.65;;;4.10;99.90;;;;;;4915766;29;20035;-73
2023/01/23 13:04:14;;;;;;;5.97;3.33;;;4.40;99.90;;;;;;4938157;29;20036;-74
2023/01/23 13:07:10;;;;;;;5.43;2.90;;;4.40;99.90;;;;;;4915104;29;20032;-73
2023/01/23 13:10:09;;;;;;;6.03;3.08;;;4.30;99.90;;;;;;4910750;29;20403;-77
2023/01/23 13:12:35;;;;;;;4.10;2.50;;;4.00;99.90;;;;;;4937517;29;20038;-74
2023/01/23 13:15:16;;;;;;;9.52;2.92;;;4.00;99.90;;;;;;4935234;28;20039;-73
2023/01/23 13:18:01;;;;;;;9.70;2.78;;;4.10;99.90;;;;;;4936007;29;20130;-73
2023/01/23 13:23:32;;;;;;;4.28;2.55;;;3.90;99.90;;;;;;4922797;29;20115;-75
2023/01/23 13:26:21;;;;;;;6.22;2.50;;;4.00;99.90;;;;;;4918924;29;20032;-73
2023/01/23 13:28:54;;;;;;;5.03;2.72;;;4.00;99.90;;;;;;4930333;29;20142;-76
2023/01/23 13:31:43;;;;;;;;;;;3.90;99.90;;;;;;4912382;29;20046;-72
2023/01/23 13:34:15;;;;;;;3.75;2.08;;;3.80;99.90;;;;;;4929737;29;19911;-78
2023/01/23 13:36:46;;;;;;;5.57;2.80;;;3.70;99.90;;;;;;4930806;29;20051;-72
2023/01/23 13:39:24;;;;;;;6.60;3.23;;;3.90;99.90;;;;;;4935122;29;20051;-72